sensor_id;sensor_type;location;lat;lon;timestamp;temperature;humidity
12452;DHT22;6291;48.924;12.204;2023-05-19T00:02:34;10.90;60.20
12452;DHT22;6291;48.924;12.204;2023-05-19T00:07:43;10.90;91.70
12452;DHT22;6291;48.924;12.204;2023-05-19T00:12:47;10.80;99.90
12452;DHT22;6291;48.924;12.204;2023-05-19T00:17:54;10.70;99.90
12452;DHT22;6291;48.924;12.204;2023-05-19T00:22:59;10.60;99.90
12452;DHT22;6291;48.924;12.204;2023-05-19T00:28:03;10.50;99.90
12452;DHT22;6291;48.924;12.204;2023-05-19T00:33:06;10.40;99.90
12452;DHT22;6291;48.924;12.204;2023-05-19T00:38:11;10.20;1.00
12452;DHT22;6291;48.924;12.204;2023-05-19T00:43:15;10.20;99.90
12452;DHT22;6291;48.924;12.204;2023-05-19T00:48:18;7.10;99.90
12452;DHT22;6291;48.924;12.204;2023-05-19T00:53:24;10.10;99.90
12452;DHT22;6291;48.924;12.204;2023-05-19T00:58:28;6.20;99.90
12452;DHT22;6291;48.924;12.204;2023-05-19T01:03:34;10.00;1.00
12452;DHT22;6291;48.924;12.204;2023-05-19T01:08:39;10.00;1.00
12452;DHT22;6291;48.924;12.204;2023-05-19T01:13:43;10.00;1.00
12452;DHT22;6291;48.924;12.204;2023-05-19T01:18:56;10.10;99.90
12452;DHT22;6291;48.924;12.204;2023-05-19T01:24:18;10.20;43.00
12452;DHT22;6291;48.924;12.204;2023-05-19T01:29:41;10.40;1.00
12452;DHT22;6291;48.924;12.204;2023-05-19T01:34:48;10.50;99.90
12452;DHT22;6291;48.924;12.204;2023-05-19T01:39:53;10.60;99.90
12452;DHT22;6291;48.924;12.204;2023-05-19T01:44:58;10.70;40.70
12452;DHT22;6291;48.924;12.204;2023-05-19T01:50:04;10.70;1.00
12452;DHT22;6291;48.924;12.204;2023-05-19T01:55:08;10.70;1.00
12452;DHT22;6291;48.924;12.204;2023-05-19T02:00:17;10.70;1.00
12452;DHT22;6291;48.924;12.204;2023-05-19T02:05:33;10.60;1.00
12452;DHT22;6291;48.924;12.204;2023-05-19T02:10:40;10.50;1.00
12452;DHT22;6291;48.924;12.204;2023-05-19T02:15:44;10.60;1.00
12452;DHT22;6291;48.924;12.204;2023-05-19T02:20:50;10.60;1.00
12452;DHT22;6291;48.924;12.204;2023-05-19T02:25:53;10.70;99.90
12452;DHT22;6291;48.924;12.204;2023-05-19T02:30:57;10.70;99.90
12452;DHT22;6291;48.924;12.204;2023-05-19T02:36:04;10.70;99.90
12452;DHT22;6291;48.924;12.204;2023-05-19T02:41:08;10.70;1.00
12452;DHT22;6291;48.924;12.204;2023-05-19T02:46:11;10.70;1.00
12452;DHT22;6291;48.924;12.204;2023-05-19T02:51:16;10.60;1.00
12452;DHT22;6291;48.924;12.204;2023-05-19T02:56:20;10.60;1.00
12452;DHT22;6291;48.924;12.204;2023-05-19T03:01:24;10.50;1.00
12452;DHT22;6291;48.924;12.204;2023-05-19T03:06:29;10.50;1.00
12452;DHT22;6291;48.924;12.204;2023-05-19T03:11:33;10.60;1.00
12452;DHT22;6291;48.924;12.204;2023-05-19T03:16:37;10.60;1.00
12452;DHT22;6291;48.924;12.204;2023-05-19T03:21:43;10.70;1.00
12452;DHT22;6291;48.924;12.204;2023-05-19T03:26:48;10.60;1.00
12452;DHT22;6291;48.924;12.204;2023-05-19T03:31:52;10.50;1.00
12452;DHT22;6291;48.924;12.204;2023-05-19T03:36:57;10.50;1.00
12452;DHT22;6291;48.924;12.204;2023-05-19T03:42:01;10.60;1.00
12452;DHT22;6291;48.924;12.204;2023-05-19T03:47:05;10.70;1.00
12452;DHT22;6291;48.924;12.204;2023-05-19T03:52:28;10.70;1.00
12452;DHT22;6291;48.924;12.204;2023-05-19T03:57:40;10.80;1.00
12452;DHT22;6291;48.924;12.204;2023-05-19T04:02:44;10.80;1.00
12452;DHT22;6291;48.924;12.204;2023-05-19T04:07:49;10.80;1.00
12452;DHT22;6291;48.924;12.204;2023-05-19T04:12:53;10.90;1.00
12452;DHT22;6291;48.924;12.204;2023-05-19T04:17:56;15.30;1.00
12452;DHT22;6291;48.924;12.204;2023-05-19T04:23:01;8.30;1.00
12452;DHT22;6291;48.924;12.204;2023-05-19T04:28:04;11.10;1.00
12452;DHT22;6291;48.924;12.204;2023-05-19T04:33:08;11.10;1.00
12452;DHT22;6291;48.924;12.204;2023-05-19T04:38:14;11.20;1.00
12452;DHT22;6291;48.924;12.204;2023-05-19T04:43:22;11.20;1.00
12452;DHT22;6291;48.924;12.204;2023-05-19T04:48:25;11.30;1.00
12452;DHT22;6291;48.924;12.204;2023-05-19T04:53:33;11.20;1.00
12452;DHT22;6291;48.924;12.204;2023-05-19T04:58:40;11.50;1.00
12452;DHT22;6291;48.924;12.204;2023-05-19T05:03:46;11.70;1.00
12452;DHT22;6291;48.924;12.204;2023-05-19T05:08:51;12.00;1.00
12452;DHT22;6291;48.924;12.204;2023-05-19T05:13:55;12.00;1.00
12452;DHT22;6291;48.924;12.204;2023-05-19T05:19:03;12.10;1.00
12452;DHT22;6291;48.924;12.204;2023-05-19T05:24:10;12.30;1.00
12452;DHT22;6291;48.924;12.204;2023-05-19T05:29:18;12.50;1.00
12452;DHT22;6291;48.924;12.204;2023-05-19T05:34:22;12.60;1.00
12452;DHT22;6291;48.924;12.204;2023-05-19T05:39:26;12.70;1.00
12452;DHT22;6291;48.924;12.204;2023-05-19T05:44:30;12.80;1.00
12452;DHT22;6291;48.924;12.204;2023-05-19T05:49:36;12.70;1.00
12452;DHT22;6291;48.924;12.204;2023-05-19T05:54:43;12.80;1.00
12452;DHT22;6291;48.924;12.204;2023-05-19T05:59:49;13.00;1.00
12452;DHT22;6291;48.924;12.204;2023-05-19T06:04:53;13.20;1.00
12452;DHT22;6291;48.924;12.204;2023-05-19T06:09:58;13.20;1.00
12452;DHT22;6291;48.924;12.204;2023-05-19T06:15:02;13.60;1.00
12452;DHT22;6291;48.924;12.204;2023-05-19T06:20:35;13.80;1.00
12452;DHT22;6291;48.924;12.204;2023-05-19T06:25:39;13.90;1.00
12452;DHT22;6291;48.924;12.204;2023-05-19T06:30:44;14.30;99.90
12452;DHT22;6291;48.924;12.204;2023-05-19T06:36:16;14.90;99.90
12452;DHT22;6291;48.924;12.204;2023-05-19T06:41:22;15.90;99.90
12452;DHT22;6291;48.924;12.204;2023-05-19T06:46:26;16.90;99.90
12452;DHT22;6291;48.924;12.204;2023-05-19T06:51:30;16.90;99.90
12452;DHT22;6291;48.924;12.204;2023-05-19T06:56:35;16.70;99.90
12452;DHT22;6291;48.924;12.204;2023-05-19T07:01:39;16.90;99.90
12452;DHT22;6291;48.924;12.204;2023-05-19T07:06:42;17.40;99.90
12452;DHT22;6291;48.924;12.204;2023-05-19T07:11:47;17.40;99.90
12452;DHT22;6291;48.924;12.204;2023-05-19T07:16:51;18.70;99.90
12452;DHT22;6291;48.924;12.204;2023-05-19T07:21:55;18.80;99.90
12452;DHT22;6291;48.924;12.204;2023-05-19T07:27:02;17.90;99.90
12452;DHT22;6291;48.924;12.204;2023-05-19T07:32:06;17.00;99.90
12452;DHT22;6291;48.924;12.204;2023-05-19T07:37:10;16.30;99.90
12452;DHT22;6291;48.924;12.204;2023-05-19T07:42:16;16.10;99.90
12452;DHT22;6291;48.924;12.204;2023-05-19T07:47:19;15.90;99.90
12452;DHT22;6291;48.924;12.204;2023-05-19T07:52:23;16.20;99.90
12452;DHT22;6291;48.924;12.204;2023-05-19T07:57:28;15.80;99.90
12452;DHT22;6291;48.924;12.204;2023-05-19T08:02:33;16.50;99.90
12452;DHT22;6291;48.924;12.204;2023-05-19T08:07:39;17.00;99.90
12452;DHT22;6291;48.924;12.204;2023-05-19T08:12:45;17.00;99.90
12452;DHT22;6291;48.924;12.204;2023-05-19T08:17:48;17.10;99.90
12452;DHT22;6291;48.924;12.204;2023-05-19T08:22:52;16.30;99.90
12452;DHT22;6291;48.924;12.204;2023-05-19T08:27:57;15.70;99.90
12452;DHT22;6291;48.924;12.204;2023-05-19T08:33:01;16.20;99.90
12452;DHT22;6291;48.924;12.204;2023-05-19T08:38:05;16.40;99.90
12452;DHT22;6291;48.924;12.204;2023-05-19T08:43:10;16.60;99.90
12452;DHT22;6291;48.924;12.204;2023-05-19T08:48:16;16.30;99.90
12452;DHT22;6291;48.924;12.204;2023-05-19T08:53:23;16.90;99.90
12452;DHT22;6291;48.924;12.204;2023-05-19T08:58:38;17.90;99.90
12452;DHT22;6291;48.924;12.204;2023-05-19T09:03:44;20.90;99.90
12452;DHT22;6291;48.924;12.204;2023-05-19T09:08:48;18.00;99.90
12452;DHT22;6291;48.924;12.204;2023-05-19T09:13:53;19.40;99.90
12452;DHT22;6291;48.924;12.204;2023-05-19T09:18:57;20.10;99.90
12452;DHT22;6291;48.924;12.204;2023-05-19T09:24:06;20.70;99.90
12452;DHT22;6291;48.924;12.204;2023-05-19T09:29:12;18.30;99.90
12452;DHT22;6291;48.924;12.204;2023-05-19T09:34:16;19.10;99.90
12452;DHT22;6291;48.924;12.204;2023-05-19T09:39:21;19.00;99.90
12452;DHT22;6291;48.924;12.204;2023-05-19T09:44:27;20.20;99.90
12452;DHT22;6291;48.924;12.204;2023-05-19T09:49:31;20.70;99.90
12452;DHT22;6291;48.924;12.204;2023-05-19T09:54:40;21.20;99.90
12452;DHT22;6291;48.924;12.204;2023-05-19T09:59:46;22.40;99.90
12452;DHT22;6291;48.924;12.204;2023-05-19T10:04:50;21.70;99.90
12452;DHT22;6291;48.924;12.204;2023-05-19T10:09:55;21.30;99.90
12452;DHT22;6291;48.924;12.204;2023-05-19T10:15:05;20.70;99.90
12452;DHT22;6291;48.924;12.204;2023-05-19T10:20:11;21.40;99.90
12452;DHT22;6291;48.924;12.204;2023-05-19T10:25:15;18.90;99.90
12452;DHT22;6291;48.924;12.204;2023-05-19T10:30:26;18.20;99.90
12452;DHT22;6291;48.924;12.204;2023-05-19T10:35:50;19.70;99.90
12452;DHT22;6291;48.924;12.204;2023-05-19T10:41:03;21.50;99.90
12452;DHT22;6291;48.924;12.204;2023-05-19T10:46:10;22.00;99.90
12452;DHT22;6291;48.924;12.204;2023-05-19T10:51:14;20.50;99.90
12452;DHT22;6291;48.924;12.204;2023-05-19T10:56:28;20.90;99.90
12452;DHT22;6291;48.924;12.204;2023-05-19T11:01:35;21.20;99.90
12452;DHT22;6291;48.924;12.204;2023-05-19T11:06:40;21.80;99.90
12452;DHT22;6291;48.924;12.204;2023-05-19T11:11:53;21.00;99.90
12452;DHT22;6291;48.924;12.204;2023-05-19T11:16:59;20.60;99.90
12452;DHT22;6291;48.924;12.204;2023-05-19T11:22:10;24.50;99.90
12452;DHT22;6291;48.924;12.204;2023-05-19T11:27:24;25.40;99.90
12452;DHT22;6291;48.924;12.204;2023-05-19T11:32:31;23.40;99.90
12452;DHT22;6291;48.924;12.204;2023-05-19T11:37:35;23.50;99.90
12452;DHT22;6291;48.924;12.204;2023-05-19T11:42:41;23.30;99.90
12452;DHT22;6291;48.924;12.204;2023-05-19T11:47:47;23.00;99.90
12452;DHT22;6291;48.924;12.204;2023-05-19T11:53:03;25.10;99.90
12452;DHT22;6291;48.924;12.204;2023-05-19T11:58:07;21.90;99.90
12452;DHT22;6291;48.924;12.204;2023-05-19T12:03:13;23.80;99.90
12452;DHT22;6291;48.924;12.204;2023-05-19T12:08:18;25.10;99.90
12452;DHT22;6291;48.924;12.204;2023-05-19T12:13:22;24.30;99.90
12452;DHT22;6291;48.924;12.204;2023-05-19T12:18:28;23.60;99.90
12452;DHT22;6291;48.924;12.204;2023-05-19T12:23:33;24.70;99.90
12452;DHT22;6291;48.924;12.204;2023-05-19T12:28:37;25.50;99.90
12452;DHT22;6291;48.924;12.204;2023-05-19T12:33:42;27.30;99.90
12452;DHT22;6291;48.924;12.204;2023-05-19T12:38:46;27.20;99.90
12452;DHT22;6291;48.924;12.204;2023-05-19T12:43:49;27.00;99.90
12452;DHT22;6291;48.924;12.204;2023-05-19T12:48:58;27.10;99.90
12452;DHT22;6291;48.924;12.204;2023-05-19T12:54:01;27.50;99.90
12452;DHT22;6291;48.924;12.204;2023-05-19T12:59:05;26.80;99.90
12452;DHT22;6291;48.924;12.204;2023-05-19T13:04:10;26.00;99.90
12452;DHT22;6291;48.924;12.204;2023-05-19T13:09:14;27.00;99.90
12452;DHT22;6291;48.924;12.204;2023-05-19T13:14:18;26.80;99.90
12452;DHT22;6291;48.924;12.204;2023-05-19T13:19:23;26.20;99.90
12452;DHT22;6291;48.924;12.204;2023-05-19T13:24:27;25.10;99.90
12452;DHT22;6291;48.924;12.204;2023-05-19T13:29:30;24.30;99.90
12452;DHT22;6291;48.924;12.204;2023-05-19T13:34:35;22.70;99.90
12452;DHT22;6291;48.924;12.204;2023-05-19T13:39:38;22.30;99.90
12452;DHT22;6291;48.924;12.204;2023-05-19T13:44:42;21.80;99.90
12452;DHT22;6291;48.924;12.204;2023-05-19T13:49:46;21.30;99.90
12452;DHT22;6291;48.924;12.204;2023-05-19T13:54:50;21.40;99.90
12452;DHT22;6291;48.924;12.204;2023-05-19T13:59:55;21.50;99.90
12452;DHT22;6291;48.924;12.204;2023-05-19T14:05:15;22.00;99.90
12452;DHT22;6291;48.924;12.204;2023-05-19T14:10:18;21.80;99.90
12452;DHT22;6291;48.924;12.204;2023-05-19T14:15:22;22.30;99.90
12452;DHT22;6291;48.924;12.204;2023-05-19T14:20:27;22.40;99.90
12452;DHT22;6291;48.924;12.204;2023-05-19T14:25:30;22.20;99.90
12452;DHT22;6291;48.924;12.204;2023-05-19T14:30:34;22.30;99.90
12452;DHT22;6291;48.924;12.204;2023-05-19T14:35:39;22.30;99.90
12452;DHT22;6291;48.924;12.204;2023-05-19T14:40:43;22.60;99.90
12452;DHT22;6291;48.924;12.204;2023-05-19T14:45:47;26.40;99.90
12452;DHT22;6291;48.924;12.204;2023-05-19T14:50:52;21.60;99.90
12452;DHT22;6291;48.924;12.204;2023-05-19T14:55:55;21.40;99.90
12452;DHT22;6291;48.924;12.204;2023-05-19T15:00:58;21.60;99.90
12452;DHT22;6291;48.924;12.204;2023-05-19T15:06:07;21.80;99.90
12452;DHT22;6291;48.924;12.204;2023-05-19T15:11:11;21.80;99.90
12452;DHT22;6291;48.924;12.204;2023-05-19T15:16:14;21.70;99.90
12452;DHT22;6291;48.924;12.204;2023-05-19T15:21:20;21.60;99.90
12452;DHT22;6291;48.924;12.204;2023-05-19T15:26:24;21.40;99.90
12452;DHT22;6291;48.924;12.204;2023-05-19T15:31:30;21.00;99.90
12452;DHT22;6291;48.924;12.204;2023-05-19T15:36:38;20.70;99.90
12452;DHT22;6291;48.924;12.204;2023-05-19T15:41:41;20.30;99.90
12452;DHT22;6291;48.924;12.204;2023-05-19T15:46:45;20.20;99.90
12452;DHT22;6291;48.924;12.204;2023-05-19T15:51:50;20.60;99.90
12452;DHT22;6291;48.924;12.204;2023-05-19T15:56:54;20.90;99.90
12452;DHT22;6291;48.924;12.204;2023-05-19T16:01:57;20.90;99.90
12452;DHT22;6291;48.924;12.204;2023-05-19T16:07:03;21.00;99.90
12452;DHT22;6291;48.924;12.204;2023-05-19T16:12:07;20.80;99.90
12452;DHT22;6291;48.924;12.204;2023-05-19T16:17:10;20.60;99.90
12452;DHT22;6291;48.924;12.204;2023-05-19T16:22:16;20.60;99.90
12452;DHT22;6291;48.924;12.204;2023-05-19T16:27:20;20.70;99.90
12452;DHT22;6291;48.924;12.204;2023-05-19T16:32:23;20.60;99.90
12452;DHT22;6291;48.924;12.204;2023-05-19T16:37:29;20.50;99.90
12452;DHT22;6291;48.924;12.204;2023-05-19T16:42:32;20.40;99.90
12452;DHT22;6291;48.924;12.204;2023-05-19T16:47:36;20.30;99.90
12452;DHT22;6291;48.924;12.204;2023-05-19T16:52:41;20.20;99.90
12452;DHT22;6291;48.924;12.204;2023-05-19T16:57:44;20.00;99.90
12452;DHT22;6291;48.924;12.204;2023-05-19T17:02:47;19.60;99.90
12452;DHT22;6291;48.924;12.204;2023-05-19T17:07:52;19.50;99.90
12452;DHT22;6291;48.924;12.204;2023-05-19T17:12:55;19.40;99.90
12452;DHT22;6291;48.924;12.204;2023-05-19T17:17:59;19.20;99.90
12452;DHT22;6291;48.924;12.204;2023-05-19T17:23:04;19.20;99.90
12452;DHT22;6291;48.924;12.204;2023-05-19T17:28:07;19.10;99.90
12452;DHT22;6291;48.924;12.204;2023-05-19T17:33:11;18.90;99.90
12452;DHT22;6291;48.924;12.204;2023-05-19T17:38:16;18.70;99.90
12452;DHT22;6291;48.924;12.204;2023-05-19T17:43:19;18.30;99.90
12452;DHT22;6291;48.924;12.204;2023-05-19T17:48:23;18.20;99.90
12452;DHT22;6291;48.924;12.204;2023-05-19T17:53:28;18.10;99.90
12452;DHT22;6291;48.924;12.204;2023-05-19T17:58:33;17.90;99.90
12452;DHT22;6291;48.924;12.204;2023-05-19T18:03:37;17.60;99.90
12452;DHT22;6291;48.924;12.204;2023-05-19T18:08:42;17.40;99.90
12452;DHT22;6291;48.924;12.204;2023-05-19T18:13:47;17.30;99.90
12452;DHT22;6291;48.924;12.204;2023-05-19T18:18:51;17.20;99.90
12452;DHT22;6291;48.924;12.204;2023-05-19T18:23:56;16.90;99.90
12452;DHT22;6291;48.924;12.204;2023-05-19T18:29:01;16.90;99.90
12452;DHT22;6291;48.924;12.204;2023-05-19T18:34:06;16.80;99.90
12452;DHT22;6291;48.924;12.204;2023-05-19T18:39:10;16.60;99.90
12452;DHT22;6291;48.924;12.204;2023-05-19T18:44:14;16.50;99.90
12452;DHT22;6291;48.924;12.204;2023-05-19T18:49:17;16.50;99.90
12452;DHT22;6291;48.924;12.204;2023-05-19T18:54:22;16.30;99.90
12452;DHT22;6291;48.924;12.204;2023-05-19T18:59:25;14.20;99.90
12452;DHT22;6291;48.924;12.204;2023-05-19T19:04:29;16.10;99.90
12452;DHT22;6291;48.924;12.204;2023-05-19T19:09:34;16.10;99.90
12452;DHT22;6291;48.924;12.204;2023-05-19T19:14:37;16.00;99.90
12452;DHT22;6291;48.924;12.204;2023-05-19T19:19:41;16.00;99.90
12452;DHT22;6291;48.924;12.204;2023-05-19T19:24:46;15.90;99.90
12452;DHT22;6291;48.924;12.204;2023-05-19T19:29:49;15.90;99.90
12452;DHT22;6291;48.924;12.204;2023-05-19T19:34:53;15.80;99.90
12452;DHT22;6291;48.924;12.204;2023-05-19T19:39:58;15.70;99.90
12452;DHT22;6291;48.924;12.204;2023-05-19T19:45:02;15.70;99.90
12452;DHT22;6291;48.924;12.204;2023-05-19T19:50:06;15.60;99.90
12452;DHT22;6291;48.924;12.204;2023-05-19T19:55:11;15.50;99.90
12452;DHT22;6291;48.924;12.204;2023-05-19T20:00:16;15.60;99.90
12452;DHT22;6291;48.924;12.204;2023-05-19T20:05:19;15.40;99.90
12452;DHT22;6291;48.924;12.204;2023-05-19T20:10:24;15.40;99.90
12452;DHT22;6291;48.924;12.204;2023-05-19T20:15:28;15.40;99.90
12452;DHT22;6291;48.924;12.204;2023-05-19T20:20:32;15.30;99.90
12452;DHT22;6291;48.924;12.204;2023-05-19T20:25:38;15.20;99.90
12452;DHT22;6291;48.924;12.204;2023-05-19T20:31:04;15.10;99.90
12452;DHT22;6291;48.924;12.204;2023-05-19T20:36:07;15.00;99.90
12452;DHT22;6291;48.924;12.204;2023-05-19T20:41:13;14.90;99.90
12452;DHT22;6291;48.924;12.204;2023-05-19T20:46:17;14.90;99.90
12452;DHT22;6291;48.924;12.204;2023-05-19T20:51:21;14.90;99.90
12452;DHT22;6291;48.924;12.204;2023-05-19T20:56:27;14.80;99.90
12452;DHT22;6291;48.924;12.204;2023-05-19T21:01:31;14.70;99.90
12452;DHT22;6291;48.924;12.204;2023-05-19T21:06:34;14.60;99.90
12452;DHT22;6291;48.924;12.204;2023-05-19T21:11:39;14.40;99.90
12452;DHT22;6291;48.924;12.204;2023-05-19T21:16:46;14.40;99.90
12452;DHT22;6291;48.924;12.204;2023-05-19T21:21:50;14.30;99.90
12452;DHT22;6291;48.924;12.204;2023-05-19T21:27:02;14.20;99.90
12452;DHT22;6291;48.924;12.204;2023-05-19T21:32:08;14.00;99.90
12452;DHT22;6291;48.924;12.204;2023-05-19T21:37:11;14.10;1.00
12452;DHT22;6291;48.924;12.204;2023-05-19T21:42:16;13.70;1.00
12452;DHT22;6291;48.924;12.204;2023-05-19T21:47:19;13.90;1.00
12452;DHT22;6291;48.924;12.204;2023-05-19T21:52:23;14.00;1.00
12452;DHT22;6291;48.924;12.204;2023-05-19T21:57:28;14.00;1.00
12452;DHT22;6291;48.924;12.204;2023-05-19T22:02:32;14.10;1.00
12452;DHT22;6291;48.924;12.204;2023-05-19T22:07:35;14.10;1.00
12452;DHT22;6291;48.924;12.204;2023-05-19T22:12:41;14.10;1.00
12452;DHT22;6291;48.924;12.204;2023-05-19T22:17:45;14.10;1.00
12452;DHT22;6291;48.924;12.204;2023-05-19T22:22:49;14.10;1.00
12452;DHT22;6291;48.924;12.204;2023-05-19T22:27:54;14.00;1.00
12452;DHT22;6291;48.924;12.204;2023-05-19T22:32:58;13.90;1.00
12452;DHT22;6291;48.924;12.204;2023-05-19T22:38:02;13.80;1.00
12452;DHT22;6291;48.924;12.204;2023-05-19T22:43:07;13.70;1.00
12452;DHT22;6291;48.924;12.204;2023-05-19T22:48:14;11.70;1.00
12452;DHT22;6291;48.924;12.204;2023-05-19T22:53:21;13.50;1.00
12452;DHT22;6291;48.924;12.204;2023-05-19T22:58:27;13.50;1.00
12452;DHT22;6291;48.924;12.204;2023-05-19T23:03:31;13.40;1.00
12452;DHT22;6291;48.924;12.204;2023-05-19T23:08:35;13.30;1.00
12452;DHT22;6291;48.924;12.204;2023-05-19T23:13:42;13.30;1.00
12452;DHT22;6291;48.924;12.204;2023-05-19T23:18:45;13.30;1.00
12452;DHT22;6291;48.924;12.204;2023-05-19T23:23:49;13.20;1.00
12452;DHT22;6291;48.924;12.204;2023-05-19T23:33:59;13.20;1.00
12452;DHT22;6291;48.924;12.204;2023-05-19T23:39:03;13.20;1.00
12452;DHT22;6291;48.924;12.204;2023-05-19T23:44:08;17.50;1.00
12452;DHT22;6291;48.924;12.204;2023-05-19T23:49:11;13.10;27.60
12452;DHT22;6291;48.924;12.204;2023-05-19T23:54:15;13.10;56.20
12452;DHT22;6291;48.924;12.204;2023-05-19T23:59:20;13.10;1.00
